QFA6033 SBEG-SLVR
Flight info
| Callsign | QFA6033 |
|---|---|
| Flight time | N/A |
| Altitude | 36000 |
| Route | UKBEL DCT OBEBA DCT ALGUB DCT LOLON DCT 1308S06302W DCT NILSO DCT SEDMA DCT 1702S06257W |
| Aircraft | B789/H-SDE1E2E3FGHIJ2J3J4J5M1RWXY/LB1D1 |
Departure
| Time | 2026-04-12 02:32 |
|---|---|
| Airport | Eduardo Gomes International Airport (SBEG) |
Arrival
| Time | N/A |
|---|---|
| Airport | Viru Viru International Airport (SLVR) |
| Time | Latitude | Longitude | Altitude | Speed | Heading |
|---|---|---|---|---|---|
| 2026-04-12 01:52 | -3.03212 | -60.04294 | 275 ft | 0 kts | 349° |
| 2026-04-12 02:20 | -3.03221 | -60.04292 | 277 ft | 4 kts | 333° |
| 2026-04-12 02:20 | -3.03234 | -60.04275 | 277 ft | 4 kts | 274° |
| 2026-04-12 02:20 | -3.03233 | -60.04254 | 282 ft | 0 kts | 256° |
| 2026-04-12 02:23 | -3.03234 | -60.04259 | 275 ft | 1 kts | 255° |
| 2026-04-12 02:23 | -3.03238 | -60.04269 | 275 ft | 2 kts | 249° |
| 2026-04-12 02:23 | -3.03245 | -60.04285 | 275 ft | 3 kts | 243° |
| 2026-04-12 02:23 | -3.03258 | -60.04304 | 275 ft | 4 kts | 234° |
| 2026-04-12 02:24 | -3.03275 | -60.04326 | 275 ft | 4 kts | 231° |
| 2026-04-12 02:24 | -3.03297 | -60.04353 | 275 ft | 5 kts | 231° |
| 2026-04-12 02:24 | -3.03318 | -60.04385 | 275 ft | 6 kts | 243° |
| 2026-04-12 02:24 | -3.03330 | -60.04424 | 274 ft | 6 kts | 255° |
| 2026-04-12 02:25 | -3.03340 | -60.04470 | 274 ft | 7 kts | 260° |
| 2026-04-12 02:25 | -3.03349 | -60.04521 | 274 ft | 8 kts | 260° |
| 2026-04-12 02:25 | -3.03356 | -60.04576 | 274 ft | 8 kts | 267° |
| 2026-04-12 02:25 | -3.03355 | -60.04636 | 273 ft | 9 kts | 271° |
| 2026-04-12 02:26 | -3.03355 | -60.04700 | 273 ft | 9 kts | 265° |
| 2026-04-12 02:26 | -3.03365 | -60.04743 | 273 ft | 10 kts | 252° |
| 2026-04-12 02:26 | -3.03409 | -60.04822 | 273 ft | 10 kts | 230° |
| 2026-04-12 02:26 | -3.03442 | -60.04856 | 272 ft | 10 kts | 221° |
| 2026-04-12 02:27 | -3.03499 | -60.04900 | 272 ft | 10 kts | 221° |
| 2026-04-12 02:27 | -3.03549 | -60.04954 | 272 ft | 11 kts | 236° |
| 2026-04-12 02:27 | -3.03582 | -60.05021 | 272 ft | 11 kts | 250° |
| 2026-04-12 02:27 | -3.03605 | -60.05096 | 271 ft | 11 kts | 255° |
| 2026-04-12 02:28 | -3.03626 | -60.05173 | 271 ft | 12 kts | 255° |
| 2026-04-12 02:28 | -3.03647 | -60.05254 | 271 ft | 12 kts | 255° |
| 2026-04-12 02:28 | -3.03667 | -60.05337 | 270 ft | 12 kts | 258° |
| 2026-04-12 02:28 | -3.03682 | -60.05423 | 270 ft | 13 kts | 263° |
| 2026-04-12 02:29 | -3.03690 | -60.05514 | 269 ft | 13 kts | 268° |
| 2026-04-12 02:29 | -3.03691 | -60.05607 | 269 ft | 13 kts | 269° |
| 2026-04-12 02:29 | -3.03691 | -60.05701 | 269 ft | 14 kts | 270° |
| 2026-04-12 02:29 | -3.03690 | -60.05797 | 268 ft | 14 kts | 270° |
| 2026-04-12 02:30 | -3.03690 | -60.05895 | 268 ft | 14 kts | 270° |
| 2026-04-12 02:30 | -3.03691 | -60.05996 | 267 ft | 15 kts | 270° |
| 2026-04-12 02:30 | -3.03694 | -60.06097 | 269 ft | 15 kts | 263° |
| 2026-04-12 02:30 | -3.03751 | -60.06169 | 266 ft | 13 kts | 200° |
| 2026-04-12 02:31 | -3.03830 | -60.06162 | 267 ft | 11 kts | 148° |
| 2026-04-12 02:31 | -3.03856 | -60.06108 | 268 ft | 8 kts | 83° |
| 2026-04-12 02:31 | -3.03857 | -60.06057 | 268 ft | 8 kts | 91° |
| 2026-04-12 02:31 | -3.03859 | -60.05942 | 268 ft | 31 kts | 91° |
| 2026-04-12 02:32 | -3.03860 | -60.05486 | 269 ft | 104 kts | 90° |
| 2026-04-12 02:32 | -3.03856 | -60.04509 | 277 ft | 175 kts | 90° |
| 2026-04-12 02:32 | -3.03859 | -60.03156 | 749 ft | 195 kts | 91° |
| 2026-04-12 02:32 | -3.03874 | -60.01816 | 1814 ft | 197 kts | 90° |
| 2026-04-12 02:33 | -3.04032 | -60.00379 | 2327 ft | 223 kts | 109° |
| 2026-04-12 02:33 | -3.05089 | -59.99135 | 2804 ft | 253 kts | 146° |
| 2026-04-12 02:33 | -3.06855 | -59.98752 | 3507 ft | 271 kts | 186° |
| 2026-04-12 02:33 | -3.08549 | -59.99512 | 4441 ft | 278 kts | 221° |
| 2026-04-12 02:34 | -3.09602 | -60.01128 | 5324 ft | 282 kts | 249° |
| 2026-04-12 02:34 | -3.10219 | -60.03010 | 6199 ft | 286 kts | 253° |
| 2026-04-12 02:34 | -3.10924 | -60.04889 | 7024 ft | 291 kts | 246° |
| 2026-04-12 02:34 | -3.11858 | -60.06693 | 7824 ft | 294 kts | 240° |
| 2026-04-12 02:35 | -3.12863 | -60.08497 | 8636 ft | 298 kts | 241° |
| 2026-04-12 02:35 | -3.13822 | -60.10352 | 9427 ft | 302 kts | 243° |
| 2026-04-12 02:35 | -3.14760 | -60.12237 | 10181 ft | 306 kts | 243° |
| 2026-04-12 02:35 | -3.15568 | -60.14247 | 10733 ft | 315 kts | 260° |
| 2026-04-12 02:36 | -3.15760 | -60.16431 | 11473 ft | 317 kts | 265° |
| 2026-04-12 02:36 | -3.15953 | -60.18638 | 12185 ft | 320 kts | 265° |
| 2026-04-12 02:36 | -3.16138 | -60.20874 | 12892 ft | 324 kts | 265° |
| 2026-04-12 02:36 | -3.16310 | -60.23130 | 13599 ft | 327 kts | 265° |
| 2026-04-12 02:37 | -3.16483 | -60.25379 | 14235 ft | 330 kts | 265° |
| 2026-04-12 02:37 | -3.16667 | -60.27687 | 14856 ft | 334 kts | 265° |
| 2026-04-12 02:37 | -3.16852 | -60.30016 | 15477 ft | 337 kts | 265° |
| 2026-04-12 02:37 | -3.17037 | -60.32364 | 16069 ft | 340 kts | 265° |
| 2026-04-12 02:38 | -3.17223 | -60.34737 | 16661 ft | 343 kts | 265° |
| 2026-04-12 02:38 | -3.17411 | -60.37127 | 17244 ft | 347 kts | 264° |
| 2026-04-12 02:38 | -3.17602 | -60.39549 | 17811 ft | 350 kts | 264° |
| 2026-04-12 02:38 | -3.17794 | -60.41995 | 18362 ft | 353 kts | 264° |
| 2026-04-12 02:39 | -3.17987 | -60.44452 | 18858 ft | 356 kts | 264° |
| 2026-04-12 02:39 | -3.18180 | -60.46906 | 19342 ft | 359 kts | 264° |
| 2026-04-12 02:39 | -3.18379 | -60.49439 | 19823 ft | 361 kts | 264° |
| 2026-04-12 02:39 | -3.18771 | -60.51900 | 20186 ft | 370 kts | 249° |
| 2026-04-12 02:40 | -3.20011 | -60.54210 | 20223 ft | 390 kts | 230° |
| 2026-04-12 02:40 | -3.21835 | -60.56340 | 20225 ft | 411 kts | 225° |
| 2026-04-12 02:40 | -3.23846 | -60.58434 | 20234 ft | 413 kts | 225° |
| 2026-04-12 02:40 | -3.25758 | -60.60554 | 20236 ft | 416 kts | 228° |
| 2026-04-12 02:41 | -3.27664 | -60.62823 | 20407 ft | 430 kts | 229° |
| 2026-04-12 02:41 | -3.29616 | -60.65102 | 21054 ft | 432 kts | 227° |
| 2026-04-12 02:41 | -3.31620 | -60.67358 | 21569 ft | 436 kts | 227° |
| 2026-04-12 02:41 | -3.33634 | -60.69633 | 22091 ft | 440 kts | 227° |
| 2026-04-12 02:42 | -3.35655 | -60.71959 | 22604 ft | 443 kts | 228° |
| 2026-04-12 02:42 | -3.37686 | -60.74301 | 23082 ft | 447 kts | 228° |
| 2026-04-12 02:42 | -3.39740 | -60.76647 | 23556 ft | 450 kts | 227° |
| 2026-04-12 02:43 | -3.43904 | -60.81404 | 24346 ft | 456 kts | 228° |
| 2026-04-12 02:43 | -3.45996 | -60.83804 | 24735 ft | 459 kts | 227° |
| 2026-04-12 02:43 | -3.48103 | -60.86217 | 25119 ft | 462 kts | 227° |
| 2026-04-12 02:43 | -3.50220 | -60.88637 | 25499 ft | 465 kts | 227° |
| 2026-04-12 02:44 | -3.52337 | -60.91060 | 25870 ft | 468 kts | 227° |
| 2026-04-12 02:44 | -3.54484 | -60.93521 | 26245 ft | 470 kts | 227° |
| 2026-04-12 02:44 | -3.56645 | -60.95996 | 26613 ft | 473 kts | 227° |
| 2026-04-12 02:44 | -3.58815 | -60.98480 | 26969 ft | 476 kts | 227° |
| 2026-04-12 02:45 | -3.61003 | -61.00985 | 27312 ft | 478 kts | 227° |
| 2026-04-12 02:45 | -3.63198 | -61.03501 | 27653 ft | 481 kts | 227° |
| 2026-04-12 02:45 | -3.65411 | -61.06035 | 27993 ft | 484 kts | 227° |
| 2026-04-12 02:45 | -3.67633 | -61.08580 | 28344 ft | 486 kts | 227° |
| 2026-04-12 02:46 | -3.69863 | -61.11135 | 28680 ft | 489 kts | 227° |
| 2026-04-12 02:46 | -3.72113 | -61.13713 | 28981 ft | 492 kts | 227° |
| 2026-04-12 02:46 | -3.74370 | -61.16299 | 29304 ft | 494 kts | 227° |
| 2026-04-12 02:46 | -3.76640 | -61.18901 | 29603 ft | 497 kts | 227° |
| 2026-04-12 02:47 | -3.78915 | -61.21509 | 29899 ft | 499 kts | 227° |
| 2026-04-12 02:47 | -3.81208 | -61.24136 | 30183 ft | 501 kts | 227° |
| 2026-04-12 02:47 | -3.83489 | -61.26751 | 30446 ft | 503 kts | 227° |
| 2026-04-12 02:47 | -3.85796 | -61.29396 | 30702 ft | 504 kts | 227° |
| 2026-04-12 02:48 | -3.88106 | -61.32044 | 30943 ft | 506 kts | 227° |
| 2026-04-12 02:48 | -3.90425 | -61.34699 | 31181 ft | 507 kts | 226° |
| 2026-04-12 02:48 | -3.92951 | -61.37153 | 31376 ft | 507 kts | 220° |
| 2026-04-12 02:48 | -3.95570 | -61.39530 | 31587 ft | 509 kts | 220° |
| 2026-04-12 02:49 | -3.98160 | -61.41877 | 31826 ft | 510 kts | 220° |
| 2026-04-12 02:49 | -4.00797 | -61.44286 | 32026 ft | 512 kts | 221° |
| 2026-04-12 02:49 | -4.03425 | -61.46695 | 32238 ft | 513 kts | 220° |
| 2026-04-12 02:49 | -4.06066 | -61.49103 | 32444 ft | 514 kts | 220° |
| 2026-04-12 02:50 | -4.08715 | -61.51515 | 32692 ft | 514 kts | 220° |
| 2026-04-12 02:50 | -4.11360 | -61.53928 | 32993 ft | 513 kts | 220° |
| 2026-04-12 02:50 | -4.13990 | -61.56332 | 33286 ft | 513 kts | 220° |
| 2026-04-12 02:50 | -4.16628 | -61.58740 | 33571 ft | 512 kts | 220° |
| 2026-04-12 02:51 | -4.19267 | -61.61148 | 33860 ft | 511 kts | 220° |
| 2026-04-12 02:51 | -4.21892 | -61.63543 | 34142 ft | 511 kts | 220° |
| 2026-04-12 02:51 | -4.24519 | -61.65943 | 34403 ft | 510 kts | 220° |
| 2026-04-12 02:51 | -4.27135 | -61.68332 | 34673 ft | 508 kts | 220° |
| 2026-04-12 02:52 | -4.29744 | -61.70714 | 34939 ft | 507 kts | 221° |
| 2026-04-12 02:52 | -4.32357 | -61.73100 | 35202 ft | 506 kts | 221° |
| 2026-04-12 02:52 | -4.34952 | -61.75470 | 35489 ft | 505 kts | 221° |
| 2026-04-12 02:52 | -4.37544 | -61.77839 | 35759 ft | 504 kts | 221° |
| 2026-04-12 02:53 | -4.40099 | -61.80173 | 35980 ft | 504 kts | 221° |
| 2026-04-12 02:53 | -4.47901 | -61.87303 | 35967 ft | 503 kts | 220° |
| 2026-04-12 02:54 | -4.53078 | -61.92033 | 35967 ft | 503 kts | 220° |
| 2026-04-12 02:54 | -4.58252 | -61.96763 | 35966 ft | 503 kts | 221° |
| 2026-04-12 02:55 | -4.63433 | -62.01500 | 35967 ft | 503 kts | 221° |
| 2026-04-12 02:55 | -4.68567 | -62.06195 | 35962 ft | 502 kts | 221° |
| 2026-04-12 02:56 | -4.73008 | -62.10257 | 35949 ft | 492 kts | 221° |
| 2026-04-12 02:56 | -4.75498 | -62.12538 | 35971 ft | 479 kts | 220° |
| 2026-04-12 02:56 | -4.77966 | -62.14794 | 35975 ft | 482 kts | 220° |
| 2026-04-12 02:57 | -4.82984 | -62.19383 | 35973 ft | 494 kts | 221° |
| 2026-04-12 02:57 | -4.88116 | -62.24082 | 35980 ft | 502 kts | 221° |
| 2026-04-12 02:58 | -4.93276 | -62.28806 | 35983 ft | 501 kts | 221° |
| 2026-04-12 02:58 | -4.98420 | -62.33516 | 35979 ft | 500 kts | 221° |
| 2026-04-12 02:59 | -5.03084 | -62.37787 | 35982 ft | 500 kts | 221° |
| 2026-04-12 02:59 | -5.08223 | -62.42485 | 35983 ft | 500 kts | 219° |
| 2026-04-12 03:00 | -5.11010 | -62.44487 | 36004 ft | 497 kts | 207° |
| 2026-04-12 03:00 | -5.14122 | -62.45927 | 36005 ft | 495 kts | 196° |
| 2026-04-12 03:00 | -5.20871 | -62.47255 | 35989 ft | 494 kts | 187° |
| 2026-04-12 03:01 | -5.27685 | -62.48200 | 35986 ft | 494 kts | 186° |
| 2026-04-12 03:01 | -5.34485 | -62.49143 | 35983 ft | 494 kts | 187° |
| 2026-04-12 03:02 | -5.41312 | -62.50093 | 35987 ft | 496 kts | 186° |
| 2026-04-12 03:02 | -5.48177 | -62.51046 | 35987 ft | 497 kts | 187° |
| 2026-04-12 03:03 | -5.55042 | -62.52001 | 35986 ft | 498 kts | 187° |
| 2026-04-12 03:03 | -5.61853 | -62.52947 | 35986 ft | 497 kts | 187° |
| 2026-04-12 03:04 | -5.68709 | -62.53901 | 35984 ft | 497 kts | 187° |
| 2026-04-12 03:04 | -5.75574 | -62.54855 | 35981 ft | 496 kts | 187° |
| 2026-04-12 03:05 | -5.82417 | -62.55808 | 35983 ft | 496 kts | 187° |
| 2026-04-12 03:05 | -5.89247 | -62.56758 | 35981 ft | 496 kts | 187° |
| 2026-04-12 03:06 | -5.96038 | -62.57703 | 35984 ft | 496 kts | 187° |
| 2026-04-12 03:06 | -6.02884 | -62.58656 | 35987 ft | 497 kts | 187° |
| 2026-04-12 03:07 | -6.09739 | -62.59611 | 35985 ft | 497 kts | 187° |
| 2026-04-12 03:07 | -6.16614 | -62.60569 | 35985 ft | 498 kts | 187° |
| 2026-04-12 03:08 | -6.23485 | -62.61526 | 35988 ft | 499 kts | 187° |
| 2026-04-12 03:08 | -6.30329 | -62.62480 | 35986 ft | 498 kts | 187° |
| 2026-04-12 03:09 | -6.37198 | -62.63438 | 35985 ft | 497 kts | 187° |
| 2026-04-12 03:09 | -6.44048 | -62.64393 | 35979 ft | 497 kts | 187° |
| 2026-04-12 03:10 | -6.50888 | -62.65347 | 35980 ft | 496 kts | 187° |
| 2026-04-12 03:10 | -6.57727 | -62.66301 | 35976 ft | 497 kts | 187° |
| 2026-04-12 03:11 | -6.64568 | -62.67256 | 35974 ft | 498 kts | 187° |
| 2026-04-12 03:11 | -6.71414 | -62.68212 | 35980 ft | 499 kts | 187° |
| 2026-04-12 03:12 | -6.78308 | -62.69174 | 35984 ft | 500 kts | 187° |
| 2026-04-12 03:12 | -6.85198 | -62.70137 | 35983 ft | 498 kts | 187° |
| 2026-04-12 03:13 | -6.92056 | -62.71095 | 35980 ft | 497 kts | 187° |
| 2026-04-12 03:13 | -6.97754 | -62.71722 | 35978 ft | 496 kts | 185° |
| 2026-04-12 03:14 | -7.05818 | -62.72597 | 35987 ft | 498 kts | 185° |
| 2026-04-12 03:14 | -7.12732 | -62.73276 | 35987 ft | 499 kts | 185° |
| 2026-04-12 03:15 | -7.18486 | -62.73878 | 35990 ft | 499 kts | 185° |
| 2026-04-12 03:15 | -7.25395 | -62.74580 | 35989 ft | 499 kts | 185° |
| 2026-04-12 03:16 | -7.32258 | -62.75285 | 35985 ft | 499 kts | 185° |
| 2026-04-12 03:16 | -7.39169 | -62.75992 | 35986 ft | 499 kts | 185° |
| 2026-04-12 03:17 | -7.46079 | -62.76699 | 35984 ft | 499 kts | 185° |
| 2026-04-12 03:17 | -7.52988 | -62.77407 | 35983 ft | 499 kts | 185° |
| 2026-04-12 03:18 | -7.59900 | -62.78115 | 35984 ft | 498 kts | 185° |
| 2026-04-12 03:18 | -7.66705 | -62.78813 | 35981 ft | 498 kts | 185° |
| 2026-04-12 03:19 | -7.73639 | -62.79524 | 35978 ft | 497 kts | 185° |
| 2026-04-12 03:19 | -7.80531 | -62.80231 | 35978 ft | 497 kts | 185° |
| 2026-04-12 03:20 | -7.87430 | -62.80939 | 35981 ft | 498 kts | 185° |
| 2026-04-12 03:20 | -7.94330 | -62.81647 | 35983 ft | 499 kts | 185° |
| 2026-04-12 03:21 | -8.01237 | -62.82357 | 35985 ft | 500 kts | 185° |
| 2026-04-12 03:21 | -8.08172 | -62.83069 | 35987 ft | 501 kts | 185° |
| 2026-04-12 03:22 | -8.15078 | -62.83779 | 35991 ft | 502 kts | 185° |
| 2026-04-12 03:22 | -8.22026 | -62.84493 | 35986 ft | 502 kts | 185° |
| 2026-04-12 03:23 | -8.28972 | -62.85207 | 35983 ft | 501 kts | 185° |
| 2026-04-12 03:23 | -8.35895 | -62.85919 | 35979 ft | 499 kts | 185° |
| 2026-04-12 03:24 | -8.42810 | -62.86631 | 35979 ft | 498 kts | 185° |
| 2026-04-12 03:24 | -8.49671 | -62.87337 | 35976 ft | 498 kts | 185° |
| 2026-04-12 03:25 | -8.56577 | -62.88048 | 35982 ft | 499 kts | 185° |
| 2026-04-12 03:25 | -8.63488 | -62.88760 | 35984 ft | 499 kts | 185° |
| 2026-04-12 03:26 | -8.70411 | -62.89473 | 35987 ft | 500 kts | 185° |
| 2026-04-12 03:26 | -8.77345 | -62.90188 | 35985 ft | 500 kts | 185° |
| 2026-04-12 03:27 | -8.84256 | -62.90901 | 35981 ft | 498 kts | 185° |
| 2026-04-12 03:27 | -8.91116 | -62.91609 | 35978 ft | 498 kts | 185° |
| 2026-04-12 03:28 | -8.98016 | -62.92321 | 35980 ft | 498 kts | 186° |
| 2026-04-12 03:28 | -9.04918 | -62.93034 | 35982 ft | 499 kts | 186° |
| 2026-04-12 03:29 | -9.11835 | -62.93604 | 35996 ft | 498 kts | 181° |
| 2026-04-12 03:29 | -9.18771 | -62.93796 | 35984 ft | 499 kts | 181° |
| 2026-04-12 03:30 | -9.25720 | -62.93996 | 35986 ft | 499 kts | 181° |
| 2026-04-12 03:30 | -9.32674 | -62.94190 | 35987 ft | 499 kts | 181° |
| 2026-04-12 03:31 | -9.39607 | -62.94389 | 35981 ft | 499 kts | 181° |
| 2026-04-12 03:31 | -9.46546 | -62.94584 | 35983 ft | 499 kts | 181° |
| 2026-04-12 03:32 | -9.53508 | -62.94782 | 35983 ft | 499 kts | 181° |
| 2026-04-12 03:32 | -9.60449 | -62.94979 | 35983 ft | 498 kts | 181° |
| 2026-04-12 03:33 | -9.67333 | -62.95175 | 35981 ft | 497 kts | 181° |
| 2026-04-12 03:33 | -9.74244 | -62.95371 | 35977 ft | 496 kts | 181° |
| 2026-04-12 03:34 | -9.81155 | -62.95567 | 35981 ft | 497 kts | 181° |
| 2026-04-12 03:34 | -9.88070 | -62.95764 | 35979 ft | 497 kts | 181° |
| 2026-04-12 03:35 | -9.94993 | -62.95961 | 35980 ft | 498 kts | 181° |
| 2026-04-12 03:35 | -10.01922 | -62.96158 | 35983 ft | 498 kts | 181° |
| 2026-04-12 03:36 | -10.08866 | -62.96356 | 35985 ft | 499 kts | 181° |
| 2026-04-12 03:36 | -10.15775 | -62.96552 | 35984 ft | 499 kts | 181° |
| 2026-04-12 03:37 | -10.22718 | -62.96750 | 35982 ft | 497 kts | 181° |
| 2026-04-12 03:37 | -10.29619 | -62.96947 | 35978 ft | 496 kts | 181° |
| 2026-04-12 03:38 | -10.36519 | -62.97144 | 35979 ft | 497 kts | 182° |
| 2026-04-12 03:38 | -10.43444 | -62.97341 | 35981 ft | 498 kts | 182° |
| 2026-04-12 03:39 | -10.50377 | -62.97539 | 35984 ft | 499 kts | 182° |
| 2026-04-12 03:39 | -10.57317 | -62.97737 | 35988 ft | 499 kts | 182° |
| 2026-04-12 03:40 | -10.64253 | -62.97935 | 35989 ft | 498 kts | 182° |
| 2026-04-12 03:40 | -10.71181 | -62.98133 | 35985 ft | 497 kts | 182° |
| 2026-04-12 03:41 | -10.78049 | -62.98330 | 35984 ft | 496 kts | 182° |
| 2026-04-12 03:41 | -10.84950 | -62.98527 | 35982 ft | 497 kts | 182° |
| 2026-04-12 03:42 | -10.91883 | -62.98726 | 35986 ft | 498 kts | 182° |
| 2026-04-12 03:42 | -10.98814 | -62.98924 | 35988 ft | 498 kts | 182° |
| 2026-04-12 03:43 | -11.05746 | -62.99123 | 35991 ft | 497 kts | 182° |
| 2026-04-12 03:43 | -11.12534 | -62.99317 | 35988 ft | 495 kts | 182° |
| 2026-04-12 03:44 | -11.15937 | -62.99406 | 35959 ft | 481 kts | 181° |
| 2026-04-12 03:44 | -11.19289 | -62.99461 | 35958 ft | 475 kts | 181° |
| 2026-04-12 03:44 | -11.25997 | -62.99586 | 35978 ft | 487 kts | 182° |
| 2026-04-12 03:45 | -11.32804 | -62.99728 | 35989 ft | 498 kts | 181° |
| 2026-04-12 03:45 | -11.39747 | -62.99860 | 35991 ft | 499 kts | 181° |
| 2026-04-12 03:46 | -11.46683 | -63.00002 | 35986 ft | 499 kts | 181° |
| 2026-04-12 03:46 | -11.53620 | -63.00137 | 35986 ft | 498 kts | 181° |
| 2026-04-12 03:47 | -11.60547 | -63.00276 | 35986 ft | 497 kts | 181° |
| 2026-04-12 03:47 | -11.67477 | -63.00413 | 35981 ft | 497 kts | 181° |
| 2026-04-12 03:48 | -11.74394 | -63.00552 | 35982 ft | 497 kts | 181° |
| 2026-04-12 03:48 | -11.81326 | -63.00689 | 35981 ft | 499 kts | 181° |
| 2026-04-12 03:49 | -11.88240 | -63.00827 | 35982 ft | 500 kts | 181° |
| 2026-04-12 03:49 | -11.95196 | -63.00966 | 35979 ft | 500 kts | 181° |
| 2026-04-12 03:50 | -12.02151 | -63.01105 | 35979 ft | 500 kts | 181° |
| 2026-04-12 03:50 | -12.09097 | -63.01243 | 35975 ft | 499 kts | 181° |
| 2026-04-12 03:51 | -12.16053 | -63.01383 | 35978 ft | 498 kts | 181° |
| 2026-04-12 03:51 | -12.22982 | -63.01521 | 35972 ft | 497 kts | 182° |
| 2026-04-12 03:52 | -12.29919 | -63.01660 | 35973 ft | 498 kts | 182° |
| 2026-04-12 03:52 | -12.36867 | -63.01799 | 35971 ft | 500 kts | 182° |
| 2026-04-12 03:53 | -12.43824 | -63.01938 | 35977 ft | 500 kts | 182° |
| 2026-04-12 03:53 | -12.50786 | -63.02077 | 35976 ft | 499 kts | 182° |
| 2026-04-12 03:54 | -12.57687 | -63.02215 | 35975 ft | 499 kts | 182° |
| 2026-04-12 03:54 | -12.64641 | -63.02355 | 35978 ft | 500 kts | 182° |
| 2026-04-12 03:55 | -12.71609 | -63.02495 | 35974 ft | 500 kts | 182° |
| 2026-04-12 03:55 | -12.78549 | -63.02634 | 35975 ft | 498 kts | 182° |
| 2026-04-12 03:56 | -12.85477 | -63.02773 | 35973 ft | 497 kts | 182° |
| 2026-04-12 03:56 | -12.92399 | -63.02912 | 35971 ft | 497 kts | 182° |
| 2026-04-12 03:57 | -12.99287 | -63.03051 | 35972 ft | 498 kts | 182° |
| 2026-04-12 03:57 | -13.06203 | -63.03190 | 35973 ft | 497 kts | 182° |
| 2026-04-12 03:58 | -13.13121 | -63.03270 | 35980 ft | 497 kts | 175° |
| 2026-04-12 03:58 | -13.19978 | -63.02151 | 35973 ft | 500 kts | 171° |
| 2026-04-12 03:59 | -13.26831 | -63.00906 | 35974 ft | 500 kts | 171° |
| 2026-04-12 03:59 | -13.33684 | -62.99685 | 35976 ft | 500 kts | 171° |
| 2026-04-12 04:00 | -13.39371 | -62.98657 | 35968 ft | 499 kts | 171° |
| 2026-04-12 04:00 | -13.46216 | -62.97430 | 35970 ft | 499 kts | 171° |
| 2026-04-12 04:01 | -13.53065 | -62.96196 | 35977 ft | 499 kts | 171° |
| 2026-04-12 04:01 | -13.59920 | -62.94963 | 35975 ft | 501 kts | 171° |
| 2026-04-12 04:02 | -13.70233 | -62.93105 | 35961 ft | 501 kts | 171° |
| 2026-04-12 04:03 | -13.77059 | -62.91875 | 35960 ft | 500 kts | 171° |
| 2026-04-12 04:03 | -13.83906 | -62.90640 | 35960 ft | 499 kts | 171° |
| 2026-04-12 04:04 | -13.90754 | -62.89404 | 35963 ft | 498 kts | 172° |
| 2026-04-12 04:04 | -13.97591 | -62.88170 | 35960 ft | 499 kts | 172° |
| 2026-04-12 04:05 | -14.04395 | -62.86940 | 35958 ft | 499 kts | 172° |
| 2026-04-12 04:05 | -14.11277 | -62.85696 | 35963 ft | 499 kts | 172° |
| 2026-04-12 04:06 | -14.18064 | -62.84468 | 35965 ft | 499 kts | 172° |
| 2026-04-12 04:06 | -14.24914 | -62.83228 | 35970 ft | 500 kts | 172° |
| 2026-04-12 04:07 | -14.31771 | -62.81986 | 35968 ft | 501 kts | 172° |
| 2026-04-12 04:07 | -14.38640 | -62.80742 | 35975 ft | 501 kts | 172° |
| 2026-04-12 04:08 | -14.45505 | -62.79496 | 35974 ft | 500 kts | 172° |
| 2026-04-12 04:08 | -14.52356 | -62.78253 | 35970 ft | 499 kts | 172° |
| 2026-04-12 04:09 | -14.59196 | -62.77011 | 35970 ft | 498 kts | 172° |
| 2026-04-12 04:09 | -14.65990 | -62.75777 | 35973 ft | 499 kts | 172° |
| 2026-04-12 04:10 | -14.72827 | -62.74534 | 35977 ft | 499 kts | 172° |
| 2026-04-12 04:10 | -14.79674 | -62.73288 | 35974 ft | 499 kts | 172° |
| 2026-04-12 04:11 | -14.86506 | -62.72045 | 35974 ft | 499 kts | 172° |
| 2026-04-12 04:11 | -14.93353 | -62.70798 | 35976 ft | 500 kts | 172° |
| 2026-04-12 04:12 | -15.00204 | -62.69548 | 35973 ft | 499 kts | 172° |
| 2026-04-12 04:12 | -15.07066 | -62.69414 | 36009 ft | 493 kts | 192° |
| 2026-04-12 04:13 | -15.13835 | -62.70600 | 35976 ft | 493 kts | 192° |
| 2026-04-12 04:13 | -15.20605 | -62.71814 | 35982 ft | 493 kts | 192° |
| 2026-04-12 04:14 | -15.27318 | -62.72995 | 35976 ft | 493 kts | 192° |
| 2026-04-12 04:14 | -15.34101 | -62.74205 | 35988 ft | 493 kts | 192° |
| 2026-04-12 04:15 | -15.40875 | -62.75404 | 35984 ft | 494 kts | 192° |
| 2026-04-12 04:15 | -15.47651 | -62.76611 | 35988 ft | 495 kts | 192° |
| 2026-04-12 04:16 | -15.54440 | -62.77817 | 35984 ft | 494 kts | 192° |
| 2026-04-12 04:16 | -15.61182 | -62.79018 | 35984 ft | 494 kts | 192° |
| 2026-04-12 04:17 | -15.67968 | -62.80226 | 35990 ft | 495 kts | 192° |
| 2026-04-12 04:17 | -15.74749 | -62.81435 | 35985 ft | 494 kts | 192° |
| 2026-04-12 04:18 | -15.81540 | -62.82646 | 35987 ft | 494 kts | 192° |
| 2026-04-12 04:18 | -15.88334 | -62.83858 | 35987 ft | 494 kts | 192° |
| 2026-04-12 04:19 | -15.95066 | -62.85061 | 35996 ft | 494 kts | 192° |
| 2026-04-12 04:19 | -16.01837 | -62.86270 | 35966 ft | 491 kts | 192° |
| 2026-04-12 04:19 | -16.05193 | -62.86870 | 35165 ft | 493 kts | 192° |
| 2026-04-12 04:20 | -16.08532 | -62.87469 | 34336 ft | 497 kts | 192° |
| 2026-04-12 04:20 | -16.11940 | -62.88079 | 33626 ft | 496 kts | 192° |
| 2026-04-12 04:20 | -16.15342 | -62.88686 | 32908 ft | 495 kts | 192° |
| 2026-04-12 04:20 | -16.18733 | -62.89293 | 32160 ft | 494 kts | 192° |
| 2026-04-12 04:21 | -16.22122 | -62.89901 | 31391 ft | 495 kts | 192° |
| 2026-04-12 04:21 | -16.25522 | -62.90511 | 30580 ft | 497 kts | 192° |
| 2026-04-12 04:21 | -16.28931 | -62.91122 | 29720 ft | 500 kts | 191° |
| 2026-04-12 04:21 | -16.32401 | -62.91561 | 28876 ft | 502 kts | 184° |
| 2026-04-12 04:22 | -16.35879 | -62.91723 | 28014 ft | 501 kts | 184° |
| 2026-04-12 04:22 | -16.39367 | -62.91880 | 27158 ft | 499 kts | 184° |
| 2026-04-12 04:22 | -16.42779 | -62.92044 | 26367 ft | 497 kts | 184° |
| 2026-04-12 04:22 | -16.46264 | -62.92220 | 25528 ft | 494 kts | 184° |
| 2026-04-12 04:23 | -16.49700 | -62.92390 | 24713 ft | 492 kts | 183° |
| 2026-04-12 04:23 | -16.53111 | -62.92551 | 23903 ft | 491 kts | 183° |
| 2026-04-12 04:23 | -16.56477 | -62.92713 | 23056 ft | 488 kts | 183° |
| 2026-04-12 04:23 | -16.59892 | -62.92881 | 22240 ft | 482 kts | 183° |
| 2026-04-12 04:24 | -16.63181 | -62.93042 | 21473 ft | 477 kts | 183° |
| 2026-04-12 04:24 | -16.66479 | -62.93202 | 20701 ft | 471 kts | 183° |
| 2026-04-12 04:24 | -16.69741 | -62.93360 | 19936 ft | 466 kts | 183° |
| 2026-04-12 04:24 | -16.72960 | -62.93517 | 19177 ft | 461 kts | 183° |
| 2026-04-12 04:25 | -16.76151 | -62.93673 | 18444 ft | 456 kts | 183° |
| 2026-04-12 04:25 | -16.79300 | -62.93826 | 17664 ft | 451 kts | 183° |
| 2026-04-12 04:25 | -16.82424 | -62.93978 | 16928 ft | 444 kts | 183° |
| 2026-04-12 04:25 | -16.85482 | -62.94128 | 16236 ft | 437 kts | 183° |
| 2026-04-12 04:26 | -16.88497 | -62.94275 | 15548 ft | 431 kts | 183° |
| 2026-04-12 04:26 | -16.91481 | -62.94421 | 14858 ft | 426 kts | 183° |
| 2026-04-12 04:26 | -16.94421 | -62.94564 | 14183 ft | 421 kts | 183° |
| 2026-04-12 04:26 | -16.97298 | -62.94704 | 13484 ft | 417 kts | 183° |
| 2026-04-12 04:27 | -17.00181 | -62.94845 | 12811 ft | 411 kts | 183° |
| 2026-04-12 04:27 | -17.03014 | -62.94987 | 12161 ft | 404 kts | 185° |
| 2026-04-12 04:27 | -17.05773 | -62.95377 | 11518 ft | 396 kts | 190° |
| 2026-04-12 04:27 | -17.08481 | -62.95744 | 11130 ft | 385 kts | 188° |
| 2026-04-12 04:28 | -17.11079 | -62.96074 | 10985 ft | 367 kts | 189° |
| 2026-04-12 04:28 | -17.13559 | -62.96424 | 10842 ft | 351 kts | 189° |
| 2026-04-12 04:28 | -17.15921 | -62.96770 | 10708 ft | 335 kts | 189° |
| 2026-04-12 04:28 | -17.18187 | -62.97091 | 10569 ft | 321 kts | 189° |
| 2026-04-12 04:29 | -17.20336 | -62.97388 | 10466 ft | 301 kts | 189° |
| 2026-04-12 04:29 | -17.22365 | -62.97671 | 10183 ft | 289 kts | 190° |
| 2026-04-12 04:29 | -17.24317 | -62.97948 | 9908 ft | 278 kts | 190° |
| 2026-04-12 04:29 | -17.26182 | -62.98212 | 9624 ft | 269 kts | 190° |
| 2026-04-12 04:30 | -17.28010 | -62.98469 | 9352 ft | 261 kts | 190° |
| 2026-04-12 04:30 | -17.29790 | -62.98720 | 9114 ft | 254 kts | 190° |
| 2026-04-12 04:30 | -17.31514 | -62.98963 | 8875 ft | 247 kts | 190° |
| 2026-04-12 04:30 | -17.33184 | -62.99198 | 8644 ft | 239 kts | 190° |
| 2026-04-12 04:31 | -17.34819 | -62.99429 | 8422 ft | 231 kts | 190° |
| 2026-04-12 04:31 | -17.36381 | -62.99648 | 8194 ft | 222 kts | 190° |
| 2026-04-12 04:31 | -17.37880 | -62.99861 | 7989 ft | 211 kts | 191° |
| 2026-04-12 04:31 | -17.39302 | -63.00060 | 7778 ft | 201 kts | 191° |
| 2026-04-12 04:32 | -17.40676 | -63.00255 | 7584 ft | 200 kts | 191° |
| 2026-04-12 04:32 | -17.42068 | -63.00453 | 7399 ft | 203 kts | 191° |
| 2026-04-12 04:32 | -17.43469 | -63.00651 | 7207 ft | 203 kts | 190° |
| 2026-04-12 04:32 | -17.44855 | -63.00845 | 7012 ft | 197 kts | 190° |
| 2026-04-12 04:33 | -17.46209 | -63.01036 | 6807 ft | 198 kts | 190° |
| 2026-04-12 04:33 | -17.47582 | -63.01230 | 6621 ft | 200 kts | 190° |
| 2026-04-12 04:33 | -17.48963 | -63.01426 | 6444 ft | 201 kts | 190° |
| 2026-04-12 04:33 | -17.50324 | -63.01616 | 6216 ft | 193 kts | 189° |
| 2026-04-12 04:34 | -17.51660 | -63.01806 | 6040 ft | 196 kts | 190° |
| 2026-04-12 04:34 | -17.52992 | -63.01994 | 5843 ft | 195 kts | 189° |
| 2026-04-12 04:34 | -17.54348 | -63.02186 | 5652 ft | 196 kts | 189° |
| 2026-04-12 04:34 | -17.55669 | -63.02372 | 5451 ft | 191 kts | 189° |
| 2026-04-12 04:35 | -17.56993 | -63.02558 | 5264 ft | 194 kts | 189° |
| 2026-04-12 04:35 | -17.58310 | -63.02746 | 5062 ft | 186 kts | 189° |
| 2026-04-12 04:35 | -17.59608 | -63.02929 | 4892 ft | 190 kts | 189° |
| 2026-04-12 04:35 | -17.60917 | -63.03115 | 4701 ft | 191 kts | 189° |
| 2026-04-12 04:36 | -17.62223 | -63.03298 | 4497 ft | 185 kts | 189° |
| 2026-04-12 04:36 | -17.63498 | -63.03478 | 4320 ft | 187 kts | 189° |
| 2026-04-12 04:36 | -17.64784 | -63.03660 | 4201 ft | 186 kts | 189° |
| 2026-04-12 04:36 | -17.66069 | -63.03838 | 4109 ft | 188 kts | 188° |
| 2026-04-12 04:37 | -17.67328 | -63.04020 | 3979 ft | 178 kts | 189° |
| 2026-04-12 04:37 | -17.68584 | -63.04200 | 3881 ft | 186 kts | 189° |
| 2026-04-12 04:37 | -17.69865 | -63.04380 | 3764 ft | 183 kts | 188° |
| 2026-04-12 04:37 | -17.71089 | -63.04551 | 3666 ft | 177 kts | 188° |
| 2026-04-12 04:38 | -17.72340 | -63.04731 | 3559 ft | 182 kts | 189° |
| 2026-04-12 04:38 | -17.73471 | -63.05213 | 3340 ft | 169 kts | 225° |
| 2026-04-12 04:38 | -17.73882 | -63.06257 | 3177 ft | 155 kts | 265° |
| 2026-04-12 04:38 | -17.73571 | -63.07343 | 2959 ft | 164 kts | 309° |
| 2026-04-12 04:39 | -17.72640 | -63.07920 | 2801 ft | 155 kts | 335° |
| 2026-04-12 04:39 | -17.71756 | -63.08602 | 2616 ft | 159 kts | 322° |
| 2026-04-12 04:39 | -17.70838 | -63.09240 | 2403 ft | 156 kts | 327° |
| 2026-04-12 04:39 | -17.69926 | -63.09860 | 2206 ft | 158 kts | 327° |
| 2026-04-12 04:40 | -17.69000 | -63.10484 | 2000 ft | 157 kts | 326° |
| 2026-04-12 04:40 | -17.68103 | -63.11092 | 1803 ft | 154 kts | 326° |
| 2026-04-12 04:40 | -17.67207 | -63.11696 | 1614 ft | 152 kts | 326° |
| 2026-04-12 04:40 | -17.66322 | -63.12296 | 1408 ft | 151 kts | 326° |
| 2026-04-12 04:41 | -17.65446 | -63.12887 | 1261 ft | 141 kts | 326° |